sensor_id;sensor_type;location;lat;lon;timestamp;P1;durP1;ratioP1;P2;durP2;ratioP2
9370;SDS011;4725;48.384;8.984;2022-10-04T00:00:58;8.97;;;5.80;;
9370;SDS011;4725;48.384;8.984;2022-10-04T00:03:31;6.73;;;4.83;;
9370;SDS011;4725;48.384;8.984;2022-10-04T00:06:03;7.27;;;5.10;;
9370;SDS011;4725;48.384;8.984;2022-10-04T00:08:41;7.07;;;5.50;;
9370;SDS011;4725;48.384;8.984;2022-10-04T00:11:14;7.50;;;5.60;;
9370;SDS011;4725;48.384;8.984;2022-10-04T00:13:46;6.37;;;4.67;;
9370;SDS011;4725;48.384;8.984;2022-10-04T00:16:25;6.13;;;4.83;;
9370;SDS011;4725;48.384;8.984;2022-10-04T00:24:36;11.07;;;4.50;;
9370;SDS011;4725;48.384;8.984;2022-10-04T00:27:24;6.47;;;4.17;;
9370;SDS011;4725;48.384;8.984;2022-10-04T00:32:45;5.13;;;4.63;;
9370;SDS011;4725;48.384;8.984;2022-10-04T00:38:23;8.23;;;5.63;;
9370;SDS011;4725;48.384;8.984;2022-10-04T00:40:54;5.23;;;4.73;;
9370;SDS011;4725;48.384;8.984;2022-10-04T00:43:26;5.97;;;5.23;;
9370;SDS011;4725;48.384;8.984;2022-10-04T00:45:55;10.20;;;4.23;;
9370;SDS011;4725;48.384;8.984;2022-10-04T00:48:33;7.37;;;5.00;;
9370;SDS011;4725;48.384;8.984;2022-10-04T00:51:10;6.40;;;4.70;;
9370;SDS011;4725;48.384;8.984;2022-10-04T00:56:33;5.80;;;4.63;;
9370;SDS011;4725;48.384;8.984;2022-10-04T00:59:15;5.13;;;4.60;;
9370;SDS011;4725;48.384;8.984;2022-10-04T01:01:55;7.57;;;4.33;;
9370;SDS011;4725;48.384;8.984;2022-10-04T01:04:27;6.27;;;4.77;;
9370;SDS011;4725;48.384;8.984;2022-10-04T01:07:08;4.90;;;4.40;;
9370;SDS011;4725;48.384;8.984;2022-10-04T01:09:40;5.53;;;4.40;;
9370;SDS011;4725;48.384;8.984;2022-10-04T01:12:15;4.87;;;4.13;;
9370;SDS011;4725;48.384;8.984;2022-10-04T01:14:58;6.13;;;4.90;;
9370;SDS011;4725;48.384;8.984;2022-10-04T01:17:31;4.40;;;4.00;;
9370;SDS011;4725;48.384;8.984;2022-10-04T01:19:58;4.70;;;3.87;;
9370;SDS011;4725;48.384;8.984;2022-10-04T01:22:31;7.40;;;4.67;;
9370;SDS011;4725;48.384;8.984;2022-10-04T01:25:00;7.07;;;4.70;;
9370;SDS011;4725;48.384;8.984;2022-10-04T01:27:32;4.80;;;4.20;;
9370;SDS011;4725;48.384;8.984;2022-10-04T01:30:01;5.23;;;4.23;;
9370;SDS011;4725;48.384;8.984;2022-10-04T01:32:33;4.53;;;4.00;;
9370;SDS011;4725;48.384;8.984;2022-10-04T01:35:00;6.33;;;3.97;;
9370;SDS011;4725;48.384;8.984;2022-10-04T01:37:27;5.73;;;4.50;;
9370;SDS011;4725;48.384;8.984;2022-10-04T01:39:56;4.93;;;4.17;;
9370;SDS011;4725;48.384;8.984;2022-10-04T01:42:25;10.63;;;4.00;;
9370;SDS011;4725;48.384;8.984;2022-10-04T01:44:57;4.27;;;3.87;;
9370;SDS011;4725;48.384;8.984;2022-10-04T01:47:29;6.77;;;3.47;;
9370;SDS011;4725;48.384;8.984;2022-10-04T01:50:01;4.40;;;4.00;;
9370;SDS011;4725;48.384;8.984;2022-10-04T01:52:31;4.57;;;3.90;;
9370;SDS011;4725;48.384;8.984;2022-10-04T01:55:04;4.77;;;4.03;;
9370;SDS011;4725;48.384;8.984;2022-10-04T01:57:39;4.53;;;3.67;;
9370;SDS011;4725;48.384;8.984;2022-10-04T02:00:12;5.93;;;4.00;;
9370;SDS011;4725;48.384;8.984;2022-10-04T02:02:40;4.93;;;3.70;;
9370;SDS011;4725;48.384;8.984;2022-10-04T02:05:15;5.27;;;3.50;;
9370;SDS011;4725;48.384;8.984;2022-10-04T02:07:44;5.27;;;3.50;;
9370;SDS011;4725;48.384;8.984;2022-10-04T02:10:17;6.17;;;4.60;;
9370;SDS011;4725;48.384;8.984;2022-10-04T02:12:47;4.10;;;3.30;;
9370;SDS011;4725;48.384;8.984;2022-10-04T02:15:17;4.07;;;3.67;;
9370;SDS011;4725;48.384;8.984;2022-10-04T02:17:46;4.37;;;3.97;;
9370;SDS011;4725;48.384;8.984;2022-10-04T02:20:14;3.97;;;3.57;;
9370;SDS011;4725;48.384;8.984;2022-10-04T02:22:45;4.50;;;3.43;;
9370;SDS011;4725;48.384;8.984;2022-10-04T02:25:17;3.60;;;3.03;;
9370;SDS011;4725;48.384;8.984;2022-10-04T02:27:45;3.60;;;3.30;;
9370;SDS011;4725;48.384;8.984;2022-10-04T02:30:12;4.07;;;3.50;;
9370;SDS011;4725;48.384;8.984;2022-10-04T02:32:40;8.43;;;4.00;;
9370;SDS011;4725;48.384;8.984;2022-10-04T02:35:22;14.53;;;4.03;;
9370;SDS011;4725;48.384;8.984;2022-10-04T02:37:53;12.27;;;4.17;;
9370;SDS011;4725;48.384;8.984;2022-10-04T02:40:29;10.17;;;4.13;;
9370;SDS011;4725;48.384;8.984;2022-10-04T02:42:59;8.13;;;4.10;;
9370;SDS011;4725;48.384;8.984;2022-10-04T02:45:31;8.43;;;4.40;;
9370;SDS011;4725;48.384;8.984;2022-10-04T02:48:09;24.93;;;4.37;;
9370;SDS011;4725;48.384;8.984;2022-10-04T02:50:46;21.03;;;6.03;;
9370;SDS011;4725;48.384;8.984;2022-10-04T02:53:17;10.67;;;4.70;;
9370;SDS011;4725;48.384;8.984;2022-10-04T02:55:50;16.93;;;5.00;;
9370;SDS011;4725;48.384;8.984;2022-10-04T02:58:18;8.10;;;4.20;;
9370;SDS011;4725;48.384;8.984;2022-10-04T03:00:48;12.77;;;5.20;;
9370;SDS011;4725;48.384;8.984;2022-10-04T03:03:19;20.40;;;4.67;;
9370;SDS011;4725;48.384;8.984;2022-10-04T03:05:53;15.33;;;4.50;;
9370;SDS011;4725;48.384;8.984;2022-10-04T03:08:24;24.53;;;5.03;;
9370;SDS011;4725;48.384;8.984;2022-10-04T03:10:54;28.83;;;5.57;;
9370;SDS011;4725;48.384;8.984;2022-10-04T03:13:23;4.63;;;4.07;;
9370;SDS011;4725;48.384;8.984;2022-10-04T03:15:50;15.33;;;4.70;;
9370;SDS011;4725;48.384;8.984;2022-10-04T03:18:17;6.57;;;4.40;;
9370;SDS011;4725;48.384;8.984;2022-10-04T03:20:45;21.60;;;4.73;;
9370;SDS011;4725;48.384;8.984;2022-10-04T03:23:13;4.33;;;3.67;;
9370;SDS011;4725;48.384;8.984;2022-10-04T03:25:46;5.97;;;4.03;;
9370;SDS011;4725;48.384;8.984;2022-10-04T03:28:17;4.17;;;3.73;;
9370;SDS011;4725;48.384;8.984;2022-10-04T03:30:45;13.83;;;4.23;;
9370;SDS011;4725;48.384;8.984;2022-10-04T03:33:17;6.97;;;4.50;;
9370;SDS011;4725;48.384;8.984;2022-10-04T03:35:48;5.47;;;4.50;;
9370;SDS011;4725;48.384;8.984;2022-10-04T03:38:18;12.97;;;4.60;;
9370;SDS011;4725;48.384;8.984;2022-10-04T03:40:48;8.87;;;4.20;;
9370;SDS011;4725;48.384;8.984;2022-10-04T03:43:20;4.80;;;4.13;;
9370;SDS011;4725;48.384;8.984;2022-10-04T03:45:49;14.83;;;4.47;;
9370;SDS011;4725;48.384;8.984;2022-10-04T03:48:21;7.97;;;3.80;;
9370;SDS011;4725;48.384;8.984;2022-10-04T03:50:52;15.03;;;4.23;;
9370;SDS011;4725;48.384;8.984;2022-10-04T03:53:23;19.70;;;5.30;;
9370;SDS011;4725;48.384;8.984;2022-10-04T03:55:54;6.07;;;3.67;;
9370;SDS011;4725;48.384;8.984;2022-10-04T03:58:24;7.30;;;4.20;;
9370;SDS011;4725;48.384;8.984;2022-10-04T04:00:58;7.03;;;5.00;;
9370;SDS011;4725;48.384;8.984;2022-10-04T04:03:34;4.60;;;4.10;;
9370;SDS011;4725;48.384;8.984;2022-10-04T04:06:15;6.43;;;4.87;;
9370;SDS011;4725;48.384;8.984;2022-10-04T04:08:44;8.20;;;4.57;;
9370;SDS011;4725;48.384;8.984;2022-10-04T04:11:15;5.77;;;4.70;;
9370;SDS011;4725;48.384;8.984;2022-10-04T04:13:48;32.60;;;5.60;;
9370;SDS011;4725;48.384;8.984;2022-10-04T04:16:21;22.03;;;5.83;;
9370;SDS011;4725;48.384;8.984;2022-10-04T04:18:50;15.03;;;5.67;;
9370;SDS011;4725;48.384;8.984;2022-10-04T04:21:18;28.60;;;6.37;;
9370;SDS011;4725;48.384;8.984;2022-10-04T04:23:49;38.97;;;5.93;;
9370;SDS011;4725;48.384;8.984;2022-10-04T04:26:18;20.63;;;5.60;;
9370;SDS011;4725;48.384;8.984;2022-10-04T04:28:53;16.60;;;6.10;;
9370;SDS011;4725;48.384;8.984;2022-10-04T04:31:24;52.73;;;5.70;;
9370;SDS011;4725;48.384;8.984;2022-10-04T04:33:55;53.33;;;6.33;;
9370;SDS011;4725;48.384;8.984;2022-10-04T04:36:25;10.30;;;5.67;;
9370;SDS011;4725;48.384;8.984;2022-10-04T04:39:04;12.53;;;5.70;;
9370;SDS011;4725;48.384;8.984;2022-10-04T04:41:52;14.07;;;6.37;;
9370;SDS011;4725;48.384;8.984;2022-10-04T04:44:20;15.03;;;6.30;;
9370;SDS011;4725;48.384;8.984;2022-10-04T04:46:48;14.17;;;5.63;;
9370;SDS011;4725;48.384;8.984;2022-10-04T04:49:15;6.40;;;5.47;;
9370;SDS011;4725;48.384;8.984;2022-10-04T04:51:45;7.83;;;5.03;;
9370;SDS011;4725;48.384;8.984;2022-10-04T04:54:22;13.53;;;5.53;;
9370;SDS011;4725;48.384;8.984;2022-10-04T04:56:52;11.53;;;5.40;;
9370;SDS011;4725;48.384;8.984;2022-10-04T04:59:22;9.73;;;5.17;;
9370;SDS011;4725;48.384;8.984;2022-10-04T05:01:52;5.83;;;5.03;;
9370;SDS011;4725;48.384;8.984;2022-10-04T05:04:19;7.93;;;5.73;;
9370;SDS011;4725;48.384;8.984;2022-10-04T05:06:57;8.97;;;4.60;;
9370;SDS011;4725;48.384;8.984;2022-10-04T05:09:27;7.10;;;4.47;;
9370;SDS011;4725;48.384;8.984;2022-10-04T05:11:57;7.57;;;5.77;;
9370;SDS011;4725;48.384;8.984;2022-10-04T05:14:33;11.83;;;6.90;;
9370;SDS011;4725;48.384;8.984;2022-10-04T05:17:03;8.63;;;6.33;;
9370;SDS011;4725;48.384;8.984;2022-10-04T05:19:33;11.30;;;6.40;;
9370;SDS011;4725;48.384;8.984;2022-10-04T05:22:05;58.37;;;7.50;;
9370;SDS011;4725;48.384;8.984;2022-10-04T05:24:35;96.57;;;8.43;;
9370;SDS011;4725;48.384;8.984;2022-10-04T05:27:06;75.10;;;8.07;;
9370;SDS011;4725;48.384;8.984;2022-10-04T05:29:43;43.30;;;6.67;;
9370;SDS011;4725;48.384;8.984;2022-10-04T05:32:22;108.47;;;6.90;;
9370;SDS011;4725;48.384;8.984;2022-10-04T05:34:55;41.80;;;5.13;;
9370;SDS011;4725;48.384;8.984;2022-10-04T05:40:28;27.07;;;4.77;;
9370;SDS011;4725;48.384;8.984;2022-10-04T05:43:00;70.97;;;6.77;;
9370;SDS011;4725;48.384;8.984;2022-10-04T05:45:29;36.93;;;5.30;;
9370;SDS011;4725;48.384;8.984;2022-10-04T05:47:57;4.57;;;3.80;;
9370;SDS011;4725;48.384;8.984;2022-10-04T05:50:28;5.73;;;4.57;;
9370;SDS011;4725;48.384;8.984;2022-10-04T05:53:08;6.70;;;3.70;;
9370;SDS011;4725;48.384;8.984;2022-10-04T05:55:45;3.93;;;3.53;;
9370;SDS011;4725;48.384;8.984;2022-10-04T05:58:30;6.67;;;3.63;;
9370;SDS011;4725;48.384;8.984;2022-10-04T06:04:03;4.50;;;3.83;;
9370;SDS011;4725;48.384;8.984;2022-10-04T06:06:46;6.67;;;3.80;;
9370;SDS011;4725;48.384;8.984;2022-10-04T06:09:34;6.83;;;4.60;;
9370;SDS011;4725;48.384;8.984;2022-10-04T06:12:25;5.47;;;3.83;;
9370;SDS011;4725;48.384;8.984;2022-10-04T06:15:08;9.87;;;5.00;;
9370;SDS011;4725;48.384;8.984;2022-10-04T06:18:03;10.30;;;7.53;;
9370;SDS011;4725;48.384;8.984;2022-10-04T06:23:46;9.17;;;6.70;;
9370;SDS011;4725;48.384;8.984;2022-10-04T06:26:22;9.10;;;5.70;;
9370;SDS011;4725;48.384;8.984;2022-10-04T06:28:55;9.43;;;6.33;;
9370;SDS011;4725;48.384;8.984;2022-10-04T06:31:31;8.83;;;6.10;;
9370;SDS011;4725;48.384;8.984;2022-10-04T06:34:17;10.37;;;7.23;;
9370;SDS011;4725;48.384;8.984;2022-10-04T06:36:59;12.00;;;8.63;;
9370;SDS011;4725;48.384;8.984;2022-10-04T06:39:46;9.33;;;7.27;;
9370;SDS011;4725;48.384;8.984;2022-10-04T06:42:31;11.80;;;7.20;;
9370;SDS011;4725;48.384;8.984;2022-10-04T06:45:19;7.53;;;5.63;;
9370;SDS011;4725;48.384;8.984;2022-10-04T06:48:11;7.30;;;6.23;;
9370;SDS011;4725;48.384;8.984;2022-10-04T06:50:51;7.23;;;4.50;;
9370;SDS011;4725;48.384;8.984;2022-10-04T06:53:30;8.77;;;5.73;;
9370;SDS011;4725;48.384;8.984;2022-10-04T06:56:16;6.57;;;4.63;;
9370;SDS011;4725;48.384;8.984;2022-10-04T06:59:07;7.43;;;4.77;;
9370;SDS011;4725;48.384;8.984;2022-10-04T07:01:59;6.23;;;4.23;;
9370;SDS011;4725;48.384;8.984;2022-10-04T07:04:32;13.90;;;5.33;;
9370;SDS011;4725;48.384;8.984;2022-10-04T07:07:09;7.93;;;5.37;;
9370;SDS011;4725;48.384;8.984;2022-10-04T07:10:00;11.20;;;6.07;;
9370;SDS011;4725;48.384;8.984;2022-10-04T07:12:39;8.90;;;5.63;;
9370;SDS011;4725;48.384;8.984;2022-10-04T07:15:11;7.67;;;5.63;;
9370;SDS011;4725;48.384;8.984;2022-10-04T07:17:45;7.10;;;4.67;;
9370;SDS011;4725;48.384;8.984;2022-10-04T07:20:17;9.03;;;5.20;;
9370;SDS011;4725;48.384;8.984;2022-10-04T07:22:49;7.63;;;4.57;;
9370;SDS011;4725;48.384;8.984;2022-10-04T07:25:21;7.47;;;3.70;;
9370;SDS011;4725;48.384;8.984;2022-10-04T07:27:53;7.20;;;4.17;;
9370;SDS011;4725;48.384;8.984;2022-10-04T07:30:38;5.43;;;3.80;;
9370;SDS011;4725;48.384;8.984;2022-10-04T07:33:12;6.43;;;4.20;;
9370;SDS011;4725;48.384;8.984;2022-10-04T07:35:43;5.30;;;4.23;;
9370;SDS011;4725;48.384;8.984;2022-10-04T07:38:15;11.60;;;5.27;;
9370;SDS011;4725;48.384;8.984;2022-10-04T07:40:53;6.23;;;3.67;;
9370;SDS011;4725;48.384;8.984;2022-10-04T07:43:29;5.57;;;3.70;;
9370;SDS011;4725;48.384;8.984;2022-10-04T07:46:01;6.93;;;4.33;;
9370;SDS011;4725;48.384;8.984;2022-10-04T07:48:38;9.03;;;4.40;;
9370;SDS011;4725;48.384;8.984;2022-10-04T07:51:06;4.73;;;4.17;;
9370;SDS011;4725;48.384;8.984;2022-10-04T07:53:44;8.20;;;3.67;;
9370;SDS011;4725;48.384;8.984;2022-10-04T07:56:20;10.17;;;3.70;;
9370;SDS011;4725;48.384;8.984;2022-10-04T07:58:54;5.13;;;4.17;;
9370;SDS011;4725;48.384;8.984;2022-10-04T08:01:42;5.97;;;3.43;;
9370;SDS011;4725;48.384;8.984;2022-10-04T08:04:24;4.20;;;3.63;;
9370;SDS011;4725;48.384;8.984;2022-10-04T08:07:06;7.07;;;3.90;;
9370;SDS011;4725;48.384;8.984;2022-10-04T08:09:43;10.07;;;4.00;;
9370;SDS011;4725;48.384;8.984;2022-10-04T08:12:19;6.03;;;3.70;;
9370;SDS011;4725;48.384;8.984;2022-10-04T08:14:54;5.97;;;3.30;;
9370;SDS011;4725;48.384;8.984;2022-10-04T08:17:32;5.17;;;3.43;;
9370;SDS011;4725;48.384;8.984;2022-10-04T08:20:17;6.47;;;3.53;;
9370;SDS011;4725;48.384;8.984;2022-10-04T08:22:58;6.57;;;3.50;;
9370;SDS011;4725;48.384;8.984;2022-10-04T08:25:35;4.47;;;3.10;;
9370;SDS011;4725;48.384;8.984;2022-10-04T08:28:11;5.73;;;3.60;;
9370;SDS011;4725;48.384;8.984;2022-10-04T08:31:06;10.20;;;4.03;;
9370;SDS011;4725;48.384;8.984;2022-10-04T08:33:54;5.33;;;3.70;;
9370;SDS011;4725;48.384;8.984;2022-10-04T08:36:26;5.77;;;3.20;;
9370;SDS011;4725;48.384;8.984;2022-10-04T08:39:03;11.47;;;3.77;;
9370;SDS011;4725;48.384;8.984;2022-10-04T08:42:01;7.20;;;4.67;;
9370;SDS011;4725;48.384;8.984;2022-10-04T08:48:13;8.40;;;4.60;;
9370;SDS011;4725;48.384;8.984;2022-10-04T08:57:43;4.67;;;4.27;;
9370;SDS011;4725;48.384;8.984;2022-10-04T09:09:41;4.53;;;3.63;;
9370;SDS011;4725;48.384;8.984;2022-10-04T09:12:47;6.50;;;3.93;;
9370;SDS011;4725;48.384;8.984;2022-10-04T09:15:28;4.57;;;3.63;;
9370;SDS011;4725;48.384;8.984;2022-10-04T09:18:31;5.00;;;3.37;;
9370;SDS011;4725;48.384;8.984;2022-10-04T09:21:18;6.87;;;3.57;;
9370;SDS011;4725;48.384;8.984;2022-10-04T09:26:54;5.03;;;3.50;;
9370;SDS011;4725;48.384;8.984;2022-10-04T09:29:43;6.63;;;3.37;;
9370;SDS011;4725;48.384;8.984;2022-10-04T09:35:43;4.47;;;4.00;;
9370;SDS011;4725;48.384;8.984;2022-10-04T09:38:33;7.90;;;4.72;;
9370;SDS011;4725;48.384;8.984;2022-10-04T09:41:27;6.22;;;3.72;;
9370;SDS011;4725;48.384;8.984;2022-10-04T09:44:09;8.40;;;3.53;;
9370;SDS011;4725;48.384;8.984;2022-10-04T09:50:33;4.75;;;3.08;;
9370;SDS011;4725;48.384;8.984;2022-10-04T09:53:29;4.35;;;2.70;;
9370;SDS011;4725;48.384;8.984;2022-10-04T09:59:08;4.55;;;3.17;;
9370;SDS011;4725;48.384;8.984;2022-10-04T10:02:20;3.78;;;2.63;;
9370;SDS011;4725;48.384;8.984;2022-10-04T10:05:13;5.70;;;3.50;;
9370;SDS011;4725;48.384;8.984;2022-10-04T10:07:57;3.47;;;3.00;;
9370;SDS011;4725;48.384;8.984;2022-10-04T10:10:34;4.20;;;3.28;;
9370;SDS011;4725;48.384;8.984;2022-10-04T10:13:28;6.85;;;3.13;;
9370;SDS011;4725;48.384;8.984;2022-10-04T10:16:05;2.65;;;2.45;;
9370;SDS011;4725;48.384;8.984;2022-10-04T10:18:55;5.18;;;3.00;;
9370;SDS011;4725;48.384;8.984;2022-10-04T10:21:37;3.55;;;2.72;;
9370;SDS011;4725;48.384;8.984;2022-10-04T10:24:18;2.80;;;2.22;;
9370;SDS011;4725;48.384;8.984;2022-10-04T10:27:01;3.22;;;2.47;;
9370;SDS011;4725;48.384;8.984;2022-10-04T10:32:40;4.07;;;2.72;;
9370;SDS011;4725;48.384;8.984;2022-10-04T10:38:43;6.47;;;2.90;;
9370;SDS011;4725;48.384;8.984;2022-10-04T10:41:26;6.53;;;2.60;;
9370;SDS011;4725;48.384;8.984;2022-10-04T10:44:10;7.60;;;3.17;;
9370;SDS011;4725;48.384;8.984;2022-10-04T10:46:54;3.42;;;2.65;;
9370;SDS011;4725;48.384;8.984;2022-10-04T10:49:37;4.10;;;2.50;;
9370;SDS011;4725;48.384;8.984;2022-10-04T10:52:27;3.78;;;2.97;;
9370;SDS011;4725;48.384;8.984;2022-10-04T10:55:26;4.43;;;3.15;;
9370;SDS011;4725;48.384;8.984;2022-10-04T11:00:59;8.18;;;3.05;;
9370;SDS011;4725;48.384;8.984;2022-10-04T11:03:50;7.03;;;3.33;;
9370;SDS011;4725;48.384;8.984;2022-10-04T11:06:40;4.22;;;2.60;;
9370;SDS011;4725;48.384;8.984;2022-10-04T11:09:29;5.32;;;2.50;;
9370;SDS011;4725;48.384;8.984;2022-10-04T11:18:36;3.72;;;2.83;;
9370;SDS011;4725;48.384;8.984;2022-10-04T11:21:43;2.95;;;2.30;;
9370;SDS011;4725;48.384;8.984;2022-10-04T11:24:51;3.30;;;2.67;;
9370;SDS011;4725;48.384;8.984;2022-10-04T11:27:40;2.88;;;2.30;;
9370;SDS011;4725;48.384;8.984;2022-10-04T11:30:16;3.08;;;2.33;;
9370;SDS011;4725;48.384;8.984;2022-10-04T11:39:20;4.80;;;2.25;;
9370;SDS011;4725;48.384;8.984;2022-10-04T11:42:10;3.25;;;2.03;;
9370;SDS011;4725;48.384;8.984;2022-10-04T11:44:56;3.28;;;2.25;;
9370;SDS011;4725;48.384;8.984;2022-10-04T11:47:54;3.15;;;2.30;;
9370;SDS011;4725;48.384;8.984;2022-10-04T11:50:33;4.22;;;2.22;;
9370;SDS011;4725;48.384;8.984;2022-10-04T11:53:12;3.88;;;2.30;;
9370;SDS011;4725;48.384;8.984;2022-10-04T11:56:01;4.90;;;2.20;;
9370;SDS011;4725;48.384;8.984;2022-10-04T12:01:44;2.22;;;1.92;;
9370;SDS011;4725;48.384;8.984;2022-10-04T12:04:37;2.58;;;2.33;;
9370;SDS011;4725;48.384;8.984;2022-10-04T12:07:39;2.90;;;2.22;;
9370;SDS011;4725;48.384;8.984;2022-10-04T12:10:18;2.75;;;2.22;;
9370;SDS011;4725;48.384;8.984;2022-10-04T12:13:04;4.15;;;2.70;;
9370;SDS011;4725;48.384;8.984;2022-10-04T12:16:00;4.85;;;2.67;;
9370;SDS011;4725;48.384;8.984;2022-10-04T12:21:58;4.35;;;2.60;;
9370;SDS011;4725;48.384;8.984;2022-10-04T12:27:44;6.18;;;2.58;;
9370;SDS011;4725;48.384;8.984;2022-10-04T12:30:42;5.20;;;2.20;;
9370;SDS011;4725;48.384;8.984;2022-10-04T12:33:30;5.65;;;2.65;;
9370;SDS011;4725;48.384;8.984;2022-10-04T12:36:06;2.53;;;2.05;;
9370;SDS011;4725;48.384;8.984;2022-10-04T12:38:48;5.75;;;2.10;;
9370;SDS011;4725;48.384;8.984;2022-10-04T12:41:29;5.53;;;2.53;;
9370;SDS011;4725;48.384;8.984;2022-10-04T12:44:04;6.20;;;2.08;;
9370;SDS011;4725;48.384;8.984;2022-10-04T12:46:42;2.30;;;2.10;;
9370;SDS011;4725;48.384;8.984;2022-10-04T12:49:20;3.25;;;2.20;;
9370;SDS011;4725;48.384;8.984;2022-10-04T12:51:56;3.88;;;2.50;;
9370;SDS011;4725;48.384;8.984;2022-10-04T12:54:33;2.63;;;2.00;;
9370;SDS011;4725;48.384;8.984;2022-10-04T13:00:04;4.93;;;2.38;;
9370;SDS011;4725;48.384;8.984;2022-10-04T13:02:47;6.75;;;2.00;;
9370;SDS011;4725;48.384;8.984;2022-10-04T13:05:29;4.93;;;1.92;;
9370;SDS011;4725;48.384;8.984;2022-10-04T13:08:18;3.72;;;1.98;;
9370;SDS011;4725;48.384;8.984;2022-10-04T13:10:53;3.20;;;2.15;;
9370;SDS011;4725;48.384;8.984;2022-10-04T13:16:49;4.65;;;2.10;;
9370;SDS011;4725;48.384;8.984;2022-10-04T13:19:23;6.88;;;2.47;;
9370;SDS011;4725;48.384;8.984;2022-10-04T13:22:18;1.85;;;1.67;;
9370;SDS011;4725;48.384;8.984;2022-10-04T13:24:57;2.58;;;2.30;;
9370;SDS011;4725;48.384;8.984;2022-10-04T13:27:42;2.67;;;1.90;;
9370;SDS011;4725;48.384;8.984;2022-10-04T13:30:17;3.55;;;1.95;;
9370;SDS011;4725;48.384;8.984;2022-10-04T13:32:50;2.58;;;2.20;;
9370;SDS011;4725;48.384;8.984;2022-10-04T13:35:28;4.82;;;2.10;;
9370;SDS011;4725;48.384;8.984;2022-10-04T13:38:16;4.35;;;2.30;;
9370;SDS011;4725;48.384;8.984;2022-10-04T13:41:02;2.58;;;1.98;;
9370;SDS011;4725;48.384;8.984;2022-10-04T13:46:48;3.88;;;1.90;;
9370;SDS011;4725;48.384;8.984;2022-10-04T13:49:35;2.05;;;1.70;;
9370;SDS011;4725;48.384;8.984;2022-10-04T13:52:16;2.13;;;1.75;;
9370;SDS011;4725;48.384;8.984;2022-10-04T13:55:16;2.28;;;1.83;;
9370;SDS011;4725;48.384;8.984;2022-10-04T13:58:12;4.93;;;2.83;;
9370;SDS011;4725;48.384;8.984;2022-10-04T14:00:59;4.40;;;2.25;;
9370;SDS011;4725;48.384;8.984;2022-10-04T14:03:51;2.80;;;2.00;;
9370;SDS011;4725;48.384;8.984;2022-10-04T14:06:52;2.05;;;1.50;;
9370;SDS011;4725;48.384;8.984;2022-10-04T14:09:44;4.75;;;1.75;;
9370;SDS011;4725;48.384;8.984;2022-10-04T14:12:39;4.88;;;2.20;;
9370;SDS011;4725;48.384;8.984;2022-10-04T14:15:48;1.70;;;1.60;;
9370;SDS011;4725;48.384;8.984;2022-10-04T14:18:36;1.55;;;1.35;;
9370;SDS011;4725;48.384;8.984;2022-10-04T14:28:02;4.03;;;1.58;;
9370;SDS011;4725;48.384;8.984;2022-10-04T14:30:53;1.60;;;1.45;;
9370;SDS011;4725;48.384;8.984;2022-10-04T14:33:43;2.75;;;1.92;;
9370;SDS011;4725;48.384;8.984;2022-10-04T14:36:36;2.40;;;1.45;;
9370;SDS011;4725;48.384;8.984;2022-10-04T14:39:37;4.60;;;1.90;;
9370;SDS011;4725;48.384;8.984;2022-10-04T14:45:31;4.05;;;1.70;;
9370;SDS011;4725;48.384;8.984;2022-10-04T14:48:17;3.47;;;1.42;;
9370;SDS011;4725;48.384;8.984;2022-10-04T14:51:10;2.20;;;1.50;;
9370;SDS011;4725;48.384;8.984;2022-10-04T14:53:48;4.05;;;1.83;;
9370;SDS011;4725;48.384;8.984;2022-10-04T14:59:36;6.35;;;1.67;;
9370;SDS011;4725;48.384;8.984;2022-10-04T15:05:33;4.30;;;1.90;;
9370;SDS011;4725;48.384;8.984;2022-10-04T15:08:24;4.18;;;2.10;;
9370;SDS011;4725;48.384;8.984;2022-10-04T15:11:07;5.28;;;2.08;;
9370;SDS011;4725;48.384;8.984;2022-10-04T15:13:38;3.35;;;2.20;;
9370;SDS011;4725;48.384;8.984;2022-10-04T15:16:17;2.90;;;2.10;;
9370;SDS011;4725;48.384;8.984;2022-10-04T15:19:00;3.10;;;2.03;;
9370;SDS011;4725;48.384;8.984;2022-10-04T15:21:37;2.47;;;2.13;;
9370;SDS011;4725;48.384;8.984;2022-10-04T15:24:20;2.50;;;2.00;;
9370;SDS011;4725;48.384;8.984;2022-10-04T15:27:00;2.90;;;2.05;;
9370;SDS011;4725;48.384;8.984;2022-10-04T15:30:10;4.40;;;2.17;;
9370;SDS011;4725;48.384;8.984;2022-10-04T15:32:47;3.95;;;2.30;;
9370;SDS011;4725;48.384;8.984;2022-10-04T15:35:26;2.50;;;1.90;;
9370;SDS011;4725;48.384;8.984;2022-10-04T15:38:01;3.50;;;2.28;;
9370;SDS011;4725;48.384;8.984;2022-10-04T15:40:46;7.07;;;2.50;;
9370;SDS011;4725;48.384;8.984;2022-10-04T15:43:28;3.72;;;2.38;;
9370;SDS011;4725;48.384;8.984;2022-10-04T15:46:21;3.88;;;2.30;;
9370;SDS011;4725;48.384;8.984;2022-10-04T15:49:24;4.60;;;2.97;;
9370;SDS011;4725;48.384;8.984;2022-10-04T15:52:13;3.17;;;2.15;;
9370;SDS011;4725;48.384;8.984;2022-10-04T15:55:09;6.20;;;2.72;;
9370;SDS011;4725;48.384;8.984;2022-10-04T16:00:55;9.95;;;2.20;;
9370;SDS011;4725;48.384;8.984;2022-10-04T16:03:38;5.85;;;2.50;;
9370;SDS011;4725;48.384;8.984;2022-10-04T16:06:15;5.82;;;2.30;;
9370;SDS011;4725;48.384;8.984;2022-10-04T16:08:50;3.25;;;2.20;;
9370;SDS011;4725;48.384;8.984;2022-10-04T16:11:35;6.28;;;2.70;;
9370;SDS011;4725;48.384;8.984;2022-10-04T16:14:31;7.95;;;2.47;;
9370;SDS011;4725;48.384;8.984;2022-10-04T16:23:27;10.13;;;3.45;;
9370;SDS011;4725;48.384;8.984;2022-10-04T16:25:59;8.95;;;3.30;;
9370;SDS011;4725;48.384;8.984;2022-10-04T16:34:28;6.53;;;4.00;;
9370;SDS011;4725;48.384;8.984;2022-10-04T16:37:11;3.65;;;2.45;;
9370;SDS011;4725;48.384;8.984;2022-10-04T16:39:55;4.03;;;2.83;;
9370;SDS011;4725;48.384;8.984;2022-10-04T16:42:40;6.03;;;1.65;;
9370;SDS011;4725;48.384;8.984;2022-10-04T16:45:30;5.03;;;2.20;;
9370;SDS011;4725;48.384;8.984;2022-10-04T16:48:10;9.20;;;5.90;;
9370;SDS011;4725;48.384;8.984;2022-10-04T16:50:58;6.13;;;4.80;;
9370;SDS011;4725;48.384;8.984;2022-10-04T16:53:46;10.68;;;5.80;;
9370;SDS011;4725;48.384;8.984;2022-10-04T16:56:19;11.32;;;5.78;;
9370;SDS011;4725;48.384;8.984;2022-10-04T16:58:51;7.32;;;4.75;;
9370;SDS011;4725;48.384;8.984;2022-10-04T17:10:15;4.43;;;3.00;;
9370;SDS011;4725;48.384;8.984;2022-10-04T17:12:55;6.27;;;2.07;;
9370;SDS011;4725;48.384;8.984;2022-10-04T17:15:41;3.27;;;2.20;;
9370;SDS011;4725;48.384;8.984;2022-10-04T17:18:17;3.03;;;1.57;;
9370;SDS011;4725;48.384;8.984;2022-10-04T17:20:54;2.90;;;1.70;;
9370;SDS011;4725;48.384;8.984;2022-10-04T17:23:39;2.00;;;1.80;;
9370;SDS011;4725;48.384;8.984;2022-10-04T17:26:21;1.80;;;1.60;;
9370;SDS011;4725;48.384;8.984;2022-10-04T17:29:02;3.23;;;1.70;;
9370;SDS011;4725;48.384;8.984;2022-10-04T17:31:47;3.40;;;2.10;;
9370;SDS011;4725;48.384;8.984;2022-10-04T17:34:24;5.67;;;2.37;;
9370;SDS011;4725;48.384;8.984;2022-10-04T17:37:01;1.90;;;1.70;;
9370;SDS011;4725;48.384;8.984;2022-10-04T17:39:41;1.80;;;1.70;;
9370;SDS011;4725;48.384;8.984;2022-10-04T17:42:23;8.50;;;1.83;;
9370;SDS011;4725;48.384;8.984;2022-10-04T17:45:14;1.80;;;1.60;;
9370;SDS011;4725;48.384;8.984;2022-10-04T17:47:53;2.17;;;1.80;;
9370;SDS011;4725;48.384;8.984;2022-10-04T17:50:44;1.63;;;1.50;;
9370;SDS011;4725;48.384;8.984;2022-10-04T17:53:35;2.30;;;1.70;;
9370;SDS011;4725;48.384;8.984;2022-10-04T17:56:25;1.97;;;1.60;;
9370;SDS011;4725;48.384;8.984;2022-10-04T17:58:56;1.80;;;1.60;;
9370;SDS011;4725;48.384;8.984;2022-10-04T18:01:25;4.67;;;1.80;;
9370;SDS011;4725;48.384;8.984;2022-10-04T18:03:56;5.23;;;1.83;;
9370;SDS011;4725;48.384;8.984;2022-10-04T18:06:34;1.70;;;1.43;;
9370;SDS011;4725;48.384;8.984;2022-10-04T18:09:09;1.83;;;1.50;;
9370;SDS011;4725;48.384;8.984;2022-10-04T18:11:45;4.50;;;1.90;;
9370;SDS011;4725;48.384;8.984;2022-10-04T18:14:20;2.33;;;1.73;;
9370;SDS011;4725;48.384;8.984;2022-10-04T18:17:04;4.73;;;1.90;;
9370;SDS011;4725;48.384;8.984;2022-10-04T18:19:34;3.87;;;1.70;;
9370;SDS011;4725;48.384;8.984;2022-10-04T18:22:12;2.60;;;1.90;;
9370;SDS011;4725;48.384;8.984;2022-10-04T18:24:42;2.50;;;1.90;;
9370;SDS011;4725;48.384;8.984;2022-10-04T18:27:15;4.50;;;1.70;;
9370;SDS011;4725;48.384;8.984;2022-10-04T18:29:54;2.13;;;1.77;;
9370;SDS011;4725;48.384;8.984;2022-10-04T18:32:31;4.03;;;2.10;;
9370;SDS011;4725;48.384;8.984;2022-10-04T18:35:00;2.00;;;1.63;;
9370;SDS011;4725;48.384;8.984;2022-10-04T18:37:42;3.60;;;2.10;;
9370;SDS011;4725;48.384;8.984;2022-10-04T18:40:13;2.40;;;2.10;;
9370;SDS011;4725;48.384;8.984;2022-10-04T18:42:46;3.13;;;2.40;;